sensor_id;sensor_type;location;lat;lon;timestamp;pressure;altitude;pressure_sealevel;temperature;humidity
66945;BME280;53853;51.982;5.928;2023-02-28T00:00:37;103062.03;;;3.25;63.31
66945;BME280;53853;51.982;5.928;2023-02-28T00:03:10;103057.38;;;3.35;63.07
66945;BME280;53853;51.982;5.928;2023-02-28T00:05:40;103057.16;;;3.41;63.33
66945;BME280;53853;51.982;5.928;2023-02-28T00:08:10;103058.69;;;3.48;62.72
66945;BME280;53853;51.982;5.928;2023-02-28T00:10:41;103058.50;;;3.54;62.41
66945;BME280;53853;51.982;5.928;2023-02-28T00:13:10;103051.19;;;3.62;62.00
66945;BME280;53853;51.982;5.928;2023-02-28T00:15:40;103048.38;;;3.69;61.67
66945;BME280;53853;51.982;5.928;2023-02-28T00:18:14;103046.31;;;3.77;61.33
66945;BME280;53853;51.982;5.928;2023-02-28T00:20:44;103052.31;;;3.82;61.22
66945;BME280;53853;51.982;5.928;2023-02-28T00:23:14;103059.91;;;3.91;60.81
66945;BME280;53853;51.982;5.928;2023-02-28T00:25:44;103056.28;;;3.95;60.46
66945;BME280;53853;51.982;5.928;2023-02-28T00:28:14;103052.66;;;3.98;60.37
66945;BME280;53853;51.982;5.928;2023-02-28T00:30:44;103045.50;;;4.02;60.60
66945;BME280;53853;51.982;5.928;2023-02-28T00:33:17;103048.06;;;4.05;60.64
66945;BME280;53853;51.982;5.928;2023-02-28T00:35:48;103045.34;;;4.06;60.50
66945;BME280;53853;51.982;5.928;2023-02-28T00:38:18;103056.66;;;4.10;60.34
66945;BME280;53853;51.982;5.928;2023-02-28T00:40:48;103058.25;;;4.14;60.08
66945;BME280;53853;51.982;5.928;2023-02-28T00:43:17;103045.91;;;4.16;60.04
66945;BME280;53853;51.982;5.928;2023-02-28T00:45:47;103051.19;;;4.16;60.16
66945;BME280;53853;51.982;5.928;2023-02-28T00:48:20;103045.78;;;4.19;60.04
66945;BME280;53853;51.982;5.928;2023-02-28T00:50:50;103036.84;;;4.23;60.03
66945;BME280;53853;51.982;5.928;2023-02-28T00:53:20;103050.75;;;4.28;59.70
66945;BME280;53853;51.982;5.928;2023-02-28T00:55:50;103048.09;;;4.28;59.63
66945;BME280;53853;51.982;5.928;2023-02-28T00:58:20;103046.97;;;4.35;59.44
66945;BME280;53853;51.982;5.928;2023-02-28T01:00:52;103048.69;;;4.37;59.30
66945;BME280;53853;51.982;5.928;2023-02-28T01:03:25;103046.84;;;4.39;59.30
66945;BME280;53853;51.982;5.928;2023-02-28T01:05:55;103042.38;;;4.41;59.08
66945;BME280;53853;51.982;5.928;2023-02-28T01:08:25;103044.22;;;4.39;59.17
66945;BME280;53853;51.982;5.928;2023-02-28T01:10:55;103044.25;;;4.37;59.33
66945;BME280;53853;51.982;5.928;2023-02-28T01:13:25;103039.66;;;4.42;59.01
66945;BME280;53853;51.982;5.928;2023-02-28T01:15:56;103040.44;;;4.46;58.88
66945;BME280;53853;51.982;5.928;2023-02-28T01:18:28;103049.09;;;4.49;58.82
66945;BME280;53853;51.982;5.928;2023-02-28T01:21:02;103040.28;;;4.50;58.94
66945;BME280;53853;51.982;5.928;2023-02-28T01:23:32;103049.00;;;4.52;59.08
66945;BME280;53853;51.982;5.928;2023-02-28T01:26:07;103055.06;;;4.54;59.33
66945;BME280;53853;51.982;5.928;2023-02-28T01:28:40;103054.22;;;4.54;59.71
66945;BME280;53853;51.982;5.928;2023-02-28T01:31:11;103055.97;;;4.53;59.82
66945;BME280;53853;51.982;5.928;2023-02-28T01:33:43;103053.41;;;4.52;59.50
66945;BME280;53853;51.982;5.928;2023-02-28T01:36:16;103050.84;;;4.50;59.75
66945;BME280;53853;51.982;5.928;2023-02-28T01:38:46;103057.88;;;4.50;59.48
66945;BME280;53853;51.982;5.928;2023-02-28T01:41:18;103047.25;;;4.51;59.21
66945;BME280;53853;51.982;5.928;2023-02-28T01:43:58;103050.69;;;4.53;59.13
66945;BME280;53853;51.982;5.928;2023-02-28T01:46:30;103053.34;;;4.53;59.00
66945;BME280;53853;51.982;5.928;2023-02-28T01:49:06;103045.47;;;4.52;58.75
66945;BME280;53853;51.982;5.928;2023-02-28T01:51:42;103043.81;;;4.49;59.36
66945;BME280;53853;51.982;5.928;2023-02-28T01:54:20;103049.84;;;4.53;59.49
66945;BME280;53853;51.982;5.928;2023-02-28T01:56:53;103039.34;;;4.51;60.05
66945;BME280;53853;51.982;5.928;2023-02-28T01:59:29;103042.16;;;4.47;59.78
66945;BME280;53853;51.982;5.928;2023-02-28T02:02:01;103032.63;;;4.43;59.74
66945;BME280;53853;51.982;5.928;2023-02-28T02:04:38;103037.19;;;4.38;59.89
66945;BME280;53853;51.982;5.928;2023-02-28T02:07:11;103035.56;;;4.35;59.78
66945;BME280;53853;51.982;5.928;2023-02-28T02:09:45;103042.78;;;4.30;60.20
66945;BME280;53853;51.982;5.928;2023-02-28T02:12:21;103040.94;;;4.32;60.42
66945;BME280;53853;51.982;5.928;2023-02-28T02:15:03;103045.38;;;4.31;60.66
66945;BME280;53853;51.982;5.928;2023-02-28T02:17:41;103040.09;;;4.31;60.31
66945;BME280;53853;51.982;5.928;2023-02-28T02:26:48;103035.66;;;4.32;61.32
66945;BME280;53853;51.982;5.928;2023-02-28T02:29:47;103033.75;;;4.35;60.88
66945;BME280;53853;51.982;5.928;2023-02-28T02:32:44;103036.41;;;4.35;61.08
66945;BME280;53853;51.982;5.928;2023-02-28T02:35:26;103037.19;;;4.38;61.51
66945;BME280;53853;51.982;5.928;2023-02-28T02:38:03;103039.78;;;4.39;61.41
66945;BME280;53853;51.982;5.928;2023-02-28T02:40:40;103037.91;;;4.43;61.08
66945;BME280;53853;51.982;5.928;2023-02-28T02:43:18;103040.56;;;4.43;61.23
66945;BME280;53853;51.982;5.928;2023-02-28T02:45:52;103043.88;;;4.48;61.07
66945;BME280;53853;51.982;5.928;2023-02-28T02:48:27;103040.38;;;4.47;60.59
66945;BME280;53853;51.982;5.928;2023-02-28T02:51:03;103050.06;;;4.47;59.76
66945;BME280;53853;51.982;5.928;2023-02-28T02:53:44;103049.22;;;4.46;60.01
66945;BME280;53853;51.982;5.928;2023-02-28T02:56:19;103044.78;;;4.47;60.03
66945;BME280;53853;51.982;5.928;2023-02-28T02:58:50;103043.09;;;4.46;59.91
66945;BME280;53853;51.982;5.928;2023-02-28T03:01:24;103043.03;;;4.47;60.22
66945;BME280;53853;51.982;5.928;2023-02-28T03:03:59;103048.38;;;4.46;59.65
66945;BME280;53853;51.982;5.928;2023-02-28T03:06:32;103055.41;;;4.45;59.31
66945;BME280;53853;51.982;5.928;2023-02-28T03:09:03;103049.31;;;4.43;59.05
66945;BME280;53853;51.982;5.928;2023-02-28T03:11:36;103059.72;;;4.48;59.50
66945;BME280;53853;51.982;5.928;2023-02-28T03:14:33;103054.34;;;4.51;59.23
66945;BME280;53853;51.982;5.928;2023-02-28T03:17:44;103047.25;;;4.51;59.49
66945;BME280;53853;51.982;5.928;2023-02-28T03:20:23;103053.41;;;4.52;58.49
66945;BME280;53853;51.982;5.928;2023-02-28T03:23:10;103051.81;;;4.48;59.05
66945;BME280;53853;51.982;5.928;2023-02-28T03:25:52;103059.78;;;4.46;59.30
66945;BME280;53853;51.982;5.928;2023-02-28T03:28:31;103048.25;;;4.49;58.51
66945;BME280;53853;51.982;5.928;2023-02-28T03:31:06;103055.34;;;4.47;58.39
66945;BME280;53853;51.982;5.928;2023-02-28T03:33:41;103050.94;;;4.47;58.42
66945;BME280;53853;51.982;5.928;2023-02-28T03:36:15;103051.69;;;4.51;57.82
66945;BME280;53853;51.982;5.928;2023-02-28T03:38:53;103052.75;;;4.45;58.19
66945;BME280;53853;51.982;5.928;2023-02-28T03:41:27;103052.59;;;4.50;58.10
66945;BME280;53853;51.982;5.928;2023-02-28T03:44:03;103051.84;;;4.46;57.06
66945;BME280;53853;51.982;5.928;2023-02-28T03:46:38;103052.75;;;4.45;56.93
66945;BME280;53853;51.982;5.928;2023-02-28T03:49:17;103048.38;;;4.46;56.53
66945;BME280;53853;51.982;5.928;2023-02-28T03:51:50;103049.22;;;4.46;56.49
66945;BME280;53853;51.982;5.928;2023-02-28T03:54:27;103053.47;;;4.50;55.86
66945;BME280;53853;51.982;5.928;2023-02-28T03:57:04;103048.25;;;4.49;56.23
66945;BME280;53853;51.982;5.928;2023-02-28T03:59:39;103040.28;;;4.50;55.60
66945;BME280;53853;51.982;5.928;2023-02-28T04:02:11;103044.69;;;4.50;55.25
66945;BME280;53853;51.982;5.928;2023-02-28T04:04:41;103028.94;;;4.47;55.58
66945;BME280;53853;51.982;5.928;2023-02-28T04:07:12;103037.75;;;4.47;55.02
66945;BME280;53853;51.982;5.928;2023-02-28T04:09:44;103036.13;;;4.43;54.41
66945;BME280;53853;51.982;5.928;2023-02-28T04:12:14;103033.66;;;4.39;54.87
66945;BME280;53853;51.982;5.928;2023-02-28T04:14:44;103031.69;;;4.44;54.58
66945;BME280;53853;51.982;5.928;2023-02-28T04:17:14;103037.03;;;4.42;54.53
66945;BME280;53853;51.982;5.928;2023-02-28T04:19:44;103038.03;;;4.40;54.65
66945;BME280;53853;51.982;5.928;2023-02-28T04:22:14;103038.88;;;4.40;54.37
66945;BME280;53853;51.982;5.928;2023-02-28T04:24:47;103038.75;;;4.43;54.30
66945;BME280;53853;51.982;5.928;2023-02-28T04:27:17;103047.59;;;4.42;54.33
66945;BME280;53853;51.982;5.928;2023-02-28T04:29:46;103030.91;;;4.42;54.13
66945;BME280;53853;51.982;5.928;2023-02-28T04:32:16;103038.03;;;4.40;53.94
66945;BME280;53853;51.982;5.928;2023-02-28T04:34:46;103038.03;;;4.40;53.65
66945;BME280;53853;51.982;5.928;2023-02-28T04:37:16;103035.34;;;4.41;53.56
66945;BME280;53853;51.982;5.928;2023-02-28T04:39:48;103032.81;;;4.38;53.67
66945;BME280;53853;51.982;5.928;2023-02-28T04:42:18;103025.69;;;4.40;53.70
66945;BME280;53853;51.982;5.928;2023-02-28T04:44:48;103036.19;;;4.42;54.39
66945;BME280;53853;51.982;5.928;2023-02-28T04:47:18;103035.22;;;4.44;54.17
66945;BME280;53853;51.982;5.928;2023-02-28T04:49:48;103039.41;;;4.50;53.69
66945;BME280;53853;51.982;5.928;2023-02-28T04:52:18;103041.13;;;4.51;53.12
66945;BME280;53853;51.982;5.928;2023-02-28T04:54:51;103037.81;;;4.46;53.32
66945;BME280;53853;51.982;5.928;2023-02-28T04:57:21;103038.66;;;4.46;53.33
66945;BME280;53853;51.982;5.928;2023-02-28T04:59:51;103029.06;;;4.44;53.60
66945;BME280;53853;51.982;5.928;2023-02-28T05:02:21;103040.56;;;4.43;53.71
66945;BME280;53853;51.982;5.928;2023-02-28T05:04:51;103048.47;;;4.43;53.51
66945;BME280;53853;51.982;5.928;2023-02-28T05:07:21;103048.59;;;4.40;54.04
66945;BME280;53853;51.982;5.928;2023-02-28T05:09:53;103035.50;;;4.37;54.28
66945;BME280;53853;51.982;5.928;2023-02-28T05:12:23;103032.97;;;4.33;54.08
66945;BME280;53853;51.982;5.928;2023-02-28T05:14:53;103035.59;;;4.33;54.04
66945;BME280;53853;51.982;5.928;2023-02-28T05:17:23;103051.50;;;4.32;54.30
66945;BME280;53853;51.982;5.928;2023-02-28T05:19:53;103044.53;;;4.29;54.84
66945;BME280;53853;51.982;5.928;2023-02-28T05:22:23;103036.63;;;4.29;55.11
66945;BME280;53853;51.982;5.928;2023-02-28T05:24:55;103041.22;;;4.24;55.37
66945;BME280;53853;51.982;5.928;2023-02-28T05:27:25;103035.22;;;4.19;55.22
66945;BME280;53853;51.982;5.928;2023-02-28T05:29:55;103043.19;;;4.17;55.04
66945;BME280;53853;51.982;5.928;2023-02-28T05:32:25;103048.59;;;4.14;55.04
66945;BME280;53853;51.982;5.928;2023-02-28T05:34:55;103046.00;;;4.13;55.10
66945;BME280;53853;51.982;5.928;2023-02-28T05:37:25;103051.22;;;4.14;54.99
66945;BME280;53853;51.982;5.928;2023-02-28T05:39:57;103052.22;;;4.10;55.28
66945;BME280;53853;51.982;5.928;2023-02-28T05:42:27;103048.69;;;4.11;55.27
66945;BME280;53853;51.982;5.928;2023-02-28T05:44:58;103054.13;;;4.07;55.47
66945;BME280;53853;51.982;5.928;2023-02-28T05:47:28;103059.25;;;4.11;55.51
66945;BME280;53853;51.982;5.928;2023-02-28T05:49:57;103055.84;;;4.08;55.35
66945;BME280;53853;51.982;5.928;2023-02-28T05:52:28;103052.38;;;4.06;55.49
66945;BME280;53853;51.982;5.928;2023-02-28T05:55:01;103042.03;;;3.99;55.14
66945;BME280;53853;51.982;5.928;2023-02-28T05:57:31;103049.16;;;3.97;55.14
66945;BME280;53853;51.982;5.928;2023-02-28T06:00:01;103064.94;;;3.99;55.18
66945;BME280;53853;51.982;5.928;2023-02-28T06:02:39;103058.81;;;3.98;55.12
66945;BME280;53853;51.982;5.928;2023-02-28T06:05:13;103053.63;;;3.95;55.31
66945;BME280;53853;51.982;5.928;2023-02-28T06:07:44;103050.84;;;4.00;55.16
66945;BME280;53853;51.982;5.928;2023-02-28T06:10:17;103041.09;;;4.02;55.16
66945;BME280;53853;51.982;5.928;2023-02-28T06:12:47;103055.13;;;4.03;55.89
66945;BME280;53853;51.982;5.928;2023-02-28T06:15:17;103083.34;;;4.01;56.27
66945;BME280;53853;51.982;5.928;2023-02-28T06:17:47;103087.72;;;4.02;56.07
66945;BME280;53853;51.982;5.928;2023-02-28T06:20:17;103069.25;;;4.02;56.84
66945;BME280;53853;51.982;5.928;2023-02-28T06:22:47;103066.53;;;4.05;56.81
66945;BME280;53853;51.982;5.928;2023-02-28T06:25:21;103067.31;;;4.07;56.99
66945;BME280;53853;51.982;5.928;2023-02-28T06:27:51;103067.38;;;4.05;56.22
66945;BME280;53853;51.982;5.928;2023-02-28T06:30:22;103067.41;;;4.04;56.95
66945;BME280;53853;51.982;5.928;2023-02-28T06:32:54;103072.69;;;4.04;57.39
66945;BME280;53853;51.982;5.928;2023-02-28T06:35:24;103088.53;;;4.04;57.59
66945;BME280;53853;51.982;5.928;2023-02-28T06:37:54;103090.16;;;4.08;57.64
66945;BME280;53853;51.982;5.928;2023-02-28T06:40:26;103080.34;;;4.11;57.32
66945;BME280;53853;51.982;5.928;2023-02-28T06:42:58;103085.59;;;4.13;57.31
66945;BME280;53853;51.982;5.928;2023-02-28T06:45:28;103084.53;;;4.17;57.15
66945;BME280;53853;51.982;5.928;2023-02-28T06:47:58;103087.19;;;4.17;57.70
66945;BME280;53853;51.982;5.928;2023-02-28T06:50:28;103102.00;;;4.21;57.83
66945;BME280;53853;51.982;5.928;2023-02-28T06:52:59;103101.16;;;4.21;56.83
66945;BME280;53853;51.982;5.928;2023-02-28T06:55:32;103100.91;;;4.28;57.06
66945;BME280;53853;51.982;5.928;2023-02-28T06:58:01;103100.84;;;4.30;57.09
66945;BME280;53853;51.982;5.928;2023-02-28T07:00:41;103089.25;;;4.34;56.40
66945;BME280;53853;51.982;5.928;2023-02-28T07:03:12;103095.28;;;4.38;55.46
66945;BME280;53853;51.982;5.928;2023-02-28T07:05:42;103098.75;;;4.40;54.90
66945;BME280;53853;51.982;5.928;2023-02-28T07:08:12;103110.00;;;4.45;54.91
66945;BME280;53853;51.982;5.928;2023-02-28T07:10:45;103109.78;;;4.51;54.85
66945;BME280;53853;51.982;5.928;2023-02-28T07:13:15;103107.09;;;4.52;54.85
66945;BME280;53853;51.982;5.928;2023-02-28T07:15:52;103107.09;;;4.52;54.39
66945;BME280;53853;51.982;5.928;2023-02-28T07:18:22;103106.09;;;4.55;54.28
66945;BME280;53853;51.982;5.928;2023-02-28T07:20:52;103106.22;;;4.52;53.05
66945;BME280;53853;51.982;5.928;2023-02-28T07:23:23;103098.53;;;4.46;52.61
66945;BME280;53853;51.982;5.928;2023-02-28T07:25:55;103102.88;;;4.47;53.45
66945;BME280;53853;51.982;5.928;2023-02-28T07:28:25;103106.34;;;4.49;53.20
66945;BME280;53853;51.982;5.928;2023-02-28T07:30:55;103107.34;;;4.45;52.67
66945;BME280;53853;51.982;5.928;2023-02-28T07:33:25;103116.13;;;4.45;53.25
66945;BME280;53853;51.982;5.928;2023-02-28T07:36:01;103123.19;;;4.45;53.37
66945;BME280;53853;51.982;5.928;2023-02-28T07:38:31;103117.88;;;4.46;53.21
66945;BME280;53853;51.982;5.928;2023-02-28T07:41:05;103116.84;;;4.50;53.09
66945;BME280;53853;51.982;5.928;2023-02-28T07:43:36;103119.41;;;4.52;53.04
66945;BME280;53853;51.982;5.928;2023-02-28T07:46:08;103117.66;;;4.52;52.73
66945;BME280;53853;51.982;5.928;2023-02-28T07:48:38;103118.50;;;4.53;52.33
66945;BME280;53853;51.982;5.928;2023-02-28T07:51:08;103121.16;;;4.53;52.16
66945;BME280;53853;51.982;5.928;2023-02-28T07:53:39;103121.03;;;4.56;52.15
66945;BME280;53853;51.982;5.928;2023-02-28T07:56:11;103123.53;;;4.61;51.38
66945;BME280;53853;51.982;5.928;2023-02-28T07:58:41;103124.38;;;4.61;51.48
66945;BME280;53853;51.982;5.928;2023-02-28T08:01:11;103121.63;;;4.64;51.14
66945;BME280;53853;51.982;5.928;2023-02-28T08:03:42;103113.66;;;4.66;51.49
66945;BME280;53853;51.982;5.928;2023-02-28T08:06:17;103127.69;;;4.68;50.89
66945;BME280;53853;51.982;5.928;2023-02-28T08:08:51;103119.81;;;4.66;49.62
66945;BME280;53853;51.982;5.928;2023-02-28T08:11:25;103128.53;;;4.68;50.17
66945;BME280;53853;51.982;5.928;2023-02-28T08:13:55;103136.50;;;4.67;49.64
66945;BME280;53853;51.982;5.928;2023-02-28T08:16:25;103138.19;;;4.69;49.55
66945;BME280;53853;51.982;5.928;2023-02-28T08:18:55;103136.47;;;4.68;48.20
66945;BME280;53853;51.982;5.928;2023-02-28T08:21:25;103136.41;;;4.70;48.00
66945;BME280;53853;51.982;5.928;2023-02-28T08:23:55;103138.00;;;4.74;48.44
66945;BME280;53853;51.982;5.928;2023-02-28T08:26:27;103135.19;;;4.79;48.08
66945;BME280;53853;51.982;5.928;2023-02-28T08:28:57;103136.94;;;4.80;46.34
66945;BME280;53853;51.982;5.928;2023-02-28T08:31:27;103129.06;;;4.78;46.29
66945;BME280;53853;51.982;5.928;2023-02-28T08:33:57;103126.25;;;4.83;46.35
66945;BME280;53853;51.982;5.928;2023-02-28T08:36:27;103125.25;;;4.87;45.88
66945;BME280;53853;51.982;5.928;2023-02-28T08:38:57;103132.09;;;4.91;45.81
66945;BME280;53853;51.982;5.928;2023-02-28T08:41:30;103124.94;;;4.95;46.04
66945;BME280;53853;51.982;5.928;2023-02-28T08:44:00;103131.84;;;4.99;44.79
66945;BME280;53853;51.982;5.928;2023-02-28T08:46:30;103131.78;;;5.00;45.07
66945;BME280;53853;51.982;5.928;2023-02-28T08:49:00;103131.84;;;4.99;44.32
66945;BME280;53853;51.982;5.928;2023-02-28T08:51:30;103130.22;;;4.95;44.15
66945;BME280;53853;51.982;5.928;2023-02-28T08:54:00;103140.16;;;4.88;42.96
66945;BME280;53853;51.982;5.928;2023-02-28T08:56:33;103133.31;;;4.82;43.82
66945;BME280;53853;51.982;5.928;2023-02-28T08:59:03;103125.97;;;4.90;43.02
66945;BME280;53853;51.982;5.928;2023-02-28T09:01:33;103127.88;;;4.87;43.10
66945;BME280;53853;51.982;5.928;2023-02-28T09:04:03;103131.38;;;4.87;43.23
66945;BME280;53853;51.982;5.928;2023-02-28T09:06:35;103128.00;;;4.84;42.58
66945;BME280;53853;51.982;5.928;2023-02-28T09:09:05;103119.81;;;4.90;43.49
66945;BME280;53853;51.982;5.928;2023-02-28T09:11:38;103132.50;;;4.80;41.68
66945;BME280;53853;51.982;5.928;2023-02-28T09:14:09;103132.56;;;4.79;42.45
66945;BME280;53853;51.982;5.928;2023-02-28T09:16:38;103131.66;;;4.80;42.46
66945;BME280;53853;51.982;5.928;2023-02-28T09:19:11;103132.38;;;4.83;42.33
66945;BME280;53853;51.982;5.928;2023-02-28T09:21:41;103130.47;;;4.88;42.00
66945;BME280;53853;51.982;5.928;2023-02-28T09:24:11;103140.09;;;4.89;41.48
66945;BME280;53853;51.982;5.928;2023-02-28T09:26:44;103141.66;;;4.95;41.27
66945;BME280;53853;51.982;5.928;2023-02-28T09:29:14;103131.66;;;5.03;40.43
66945;BME280;53853;51.982;5.928;2023-02-28T09:31:44;103133.19;;;5.09;40.06
66945;BME280;53853;51.982;5.928;2023-02-28T09:34:14;103132.34;;;5.08;40.00
66945;BME280;53853;51.982;5.928;2023-02-28T09:36:44;103131.28;;;5.14;39.00
66945;BME280;53853;51.982;5.928;2023-02-28T09:39:14;103131.94;;;5.19;37.87
66945;BME280;53853;51.982;5.928;2023-02-28T09:41:49;103130.03;;;5.23;38.92
66945;BME280;53853;51.982;5.928;2023-02-28T09:44:25;103118.50;;;5.25;39.28
66945;BME280;53853;51.982;5.928;2023-02-28T09:46:59;103127.97;;;5.31;38.83
66945;BME280;53853;51.982;5.928;2023-02-28T09:49:36;103124.41;;;5.32;39.44
66945;BME280;53853;51.982;5.928;2023-02-28T09:52:12;103124.34;;;5.34;39.58
66945;BME280;53853;51.982;5.928;2023-02-28T09:54:43;103121.59;;;5.37;40.01
66945;BME280;53853;51.982;5.928;2023-02-28T09:57:21;103121.66;;;5.35;39.04
66945;BME280;53853;51.982;5.928;2023-02-28T10:00:04;103127.00;;;5.34;39.34
66945;BME280;53853;51.982;5.928;2023-02-28T10:02:48;103120.91;;;5.32;39.57
66945;BME280;53853;51.982;5.928;2023-02-28T10:05:22;103125.38;;;5.30;39.12
66945;BME280;53853;51.982;5.928;2023-02-28T10:08:03;103116.41;;;5.34;38.65
66945;BME280;53853;51.982;5.928;2023-02-28T10:10:39;103122.22;;;5.43;38.43
66945;BME280;53853;51.982;5.928;2023-02-28T10:13:21;103123.81;;;5.48;38.26
66945;BME280;53853;51.982;5.928;2023-02-28T10:15:56;103118.78;;;5.41;37.91
66945;BME280;53853;51.982;5.928;2023-02-28T10:18:30;103115.28;;;5.41;37.24
66945;BME280;53853;51.982;5.928;2023-02-28T10:21:00;103123.94;;;5.44;37.88
66945;BME280;53853;51.982;5.928;2023-02-28T10:23:35;103118.53;;;5.48;38.37
66945;BME280;53853;51.982;5.928;2023-02-28T10:26:12;103122.75;;;5.52;37.47
66945;BME280;53853;51.982;5.928;2023-02-28T10:28:46;103118.28;;;5.54;37.58
66945;BME280;53853;51.982;5.928;2023-02-28T10:31:19;103119.88;;;5.58;37.77
66945;BME280;53853;51.982;5.928;2023-02-28T10:33:49;103107.47;;;5.60;37.72
66945;BME280;53853;51.982;5.928;2023-02-28T10:36:20;103114.22;;;5.67;37.54
66945;BME280;53853;51.982;5.928;2023-02-28T10:38:50;103112.50;;;5.66;37.57
66945;BME280;53853;51.982;5.928;2023-02-28T10:41:28;103114.09;;;5.70;37.06
66945;BME280;53853;51.982;5.928;2023-02-28T10:44:21;103107.06;;;5.69;36.70
66945;BME280;53853;51.982;5.928;2023-02-28T10:46:51;103104.63;;;5.65;36.70
66945;BME280;53853;51.982;5.928;2023-02-28T10:49:24;103113.50;;;5.63;37.56
66945;BME280;53853;51.982;5.928;2023-02-28T10:51:57;103109.06;;;5.64;37.40
66945;BME280;53853;51.982;5.928;2023-02-28T10:54:31;103109.78;;;5.68;38.17
66945;BME280;53853;51.982;5.928;2023-02-28T10:57:15;103099.97;;;5.71;38.49
66945;BME280;53853;51.982;5.928;2023-02-28T10:59:51;103105.00;;;5.77;38.69
66945;BME280;53853;51.982;5.928;2023-02-28T11:02:39;103095.75;;;5.88;38.31
66945;BME280;53853;51.982;5.928;2023-02-28T11:05:28;103103.44;;;5.94;38.04
66945;BME280;53853;51.982;5.928;2023-02-28T11:08:10;103101.72;;;5.93;37.91
66945;BME280;53853;51.982;5.928;2023-02-28T11:10:46;103101.41;;;5.78;37.29
66945;BME280;53853;51.982;5.928;2023-02-28T11:13:21;103093.47;;;5.78;37.45
66945;BME280;53853;51.982;5.928;2023-02-28T11:15:59;103095.88;;;5.85;38.09
66945;BME280;53853;51.982;5.928;2023-02-28T11:18:33;103083.13;;;5.94;37.37
66945;BME280;53853;51.982;5.928;2023-02-28T11:21:06;103092.84;;;5.94;37.88
66945;BME280;53853;51.982;5.928;2023-02-28T11:23:39;103084.00;;;5.95;38.20
66945;BME280;53853;51.982;5.928;2023-02-28T11:26:10;103090.97;;;5.97;37.79
66945;BME280;53853;51.982;5.928;2023-02-28T11:28:41;103078.53;;;6.00;37.82
66945;BME280;53853;51.982;5.928;2023-02-28T11:31:20;103078.38;;;6.03;37.96
66945;BME280;53853;51.982;5.928;2023-02-28T11:33:51;103075.69;;;6.04;37.14
66945;BME280;53853;51.982;5.928;2023-02-28T11:36:25;103076.38;;;6.09;37.32
66945;BME280;53853;51.982;5.928;2023-02-28T11:38:56;103071.13;;;6.08;37.47
66945;BME280;53853;51.982;5.928;2023-02-28T11:41:52;103080.19;;;6.02;36.71
66945;BME280;53853;51.982;5.928;2023-02-28T11:44:38;103071.25;;;6.05;37.16
66945;BME280;53853;51.982;5.928;2023-02-28T11:47:19;103073.59;;;6.12;37.27
66945;BME280;53853;51.982;5.928;2023-02-28T11:50:04;103082.91;;;6.21;37.34
66945;BME280;53853;51.982;5.928;2023-02-28T11:52:48;103067.03;;;6.21;36.89
66945;BME280;53853;51.982;5.928;2023-02-28T11:55:25;103066.03;;;6.24;36.35
66945;BME280;53853;51.982;5.928;2023-02-28T11:58:23;103061.53;;;6.26;36.81
66945;BME280;53853;51.982;5.928;2023-02-28T12:01:07;103066.81;;;6.26;35.65
66945;BME280;53853;51.982;5.928;2023-02-28T12:03:47;103064.03;;;6.29;36.21
66945;BME280;53853;51.982;5.928;2023-02-28T12:06:24;103055.84;;;6.35;36.42
66945;BME280;53853;51.982;5.928;2023-02-28T12:09:04;103057.44;;;6.39;36.27
66945;BME280;53853;51.982;5.928;2023-02-28T12:11:48;103054.78;;;6.39;36.04
66945;BME280;53853;51.982;5.928;2023-02-28T12:17:22;103048.28;;;6.46;35.67
66945;BME280;53853;51.982;5.928;2023-02-28T12:19:59;103038.31;;;6.51;35.62
66945;BME280;53853;51.982;5.928;2023-02-28T12:22:39;103036.50;;;6.53;35.94
66945;BME280;53853;51.982;5.928;2023-02-28T12:25:43;103034.09;;;6.47;35.63
66945;BME280;53853;51.982;5.928;2023-02-28T12:28:21;103036.81;;;6.46;35.58
66945;BME280;53853;51.982;5.928;2023-02-28T12:30:58;103035.94;;;6.45;35.61
66945;BME280;53853;51.982;5.928;2023-02-28T12:33:34;103027.78;;;6.50;36.14
66945;BME280;53853;51.982;5.928;2023-02-28T12:36:11;103020.59;;;6.53;35.83
66945;BME280;53853;51.982;5.928;2023-02-28T12:38:48;103024.66;;;6.61;35.97
66945;BME280;53853;51.982;5.928;2023-02-28T12:41:27;103027.88;;;6.67;36.51
66945;BME280;53853;51.982;5.928;2023-02-28T12:44:03;103017.22;;;6.69;35.61
66945;BME280;53853;51.982;5.928;2023-02-28T12:46:38;103014.50;;;6.70;35.27
66945;BME280;53853;51.982;5.928;2023-02-28T12:49:15;103010.63;;;6.59;34.53
66945;BME280;53853;51.982;5.928;2023-02-28T12:51:48;103011.34;;;6.62;35.65
66945;BME280;53853;51.982;5.928;2023-02-28T12:54:24;103004.03;;;6.67;34.46
66945;BME280;53853;51.982;5.928;2023-02-28T12:57:01;103008.41;;;6.68;34.57
66945;BME280;53853;51.982;5.928;2023-02-28T12:59:39;103012.66;;;6.73;34.69
66945;BME280;53853;51.982;5.928;2023-02-28T13:02:44;103008.13;;;6.75;34.93
66945;BME280;53853;51.982;5.928;2023-02-28T13:05:39;103002.63;;;6.79;35.41
66945;BME280;53853;51.982;5.928;2023-02-28T13:08:42;103003.63;;;6.77;34.04
66945;BME280;53853;51.982;5.928;2023-02-28T13:11:25;102993.00;;;6.77;35.52
66945;BME280;53853;51.982;5.928;2023-02-28T13:13:59;102992.72;;;6.83;35.04
66945;BME280;53853;51.982;5.928;2023-02-28T13:16:48;102987.06;;;6.91;35.73
66945;BME280;53853;51.982;5.928;2023-02-28T13:19:21;102978.19;;;6.92;34.99
66945;BME280;53853;51.982;5.928;2023-02-28T13:21:52;102983.44;;;6.93;35.35
66945;BME280;53853;51.982;5.928;2023-02-28T13:24:41;102985.75;;;6.99;35.51
66945;BME280;53853;51.982;5.928;2023-02-28T13:27:23;102981.81;;;7.08;34.62
66945;BME280;53853;51.982;5.928;2023-02-28T13:29:54;102975.16;;;6.99;34.63
66945;BME280;53853;51.982;5.928;2023-02-28T13:32:33;102976.03;;;7.00;35.14
66945;BME280;53853;51.982;5.928;2023-02-28T13:35:15;102971.72;;;6.97;34.63
66945;BME280;53853;51.982;5.928;2023-02-28T13:38:34;102976.25;;;6.95;34.73
66945;BME280;53853;51.982;5.928;2023-02-28T13:44:16;102986.28;;;7.07;33.69
66945;BME280;53853;51.982;5.928;2023-02-28T13:49:46;102974.22;;;7.00;33.44
66945;BME280;53853;51.982;5.928;2023-02-28T13:52:20;102971.59;;;7.00;34.39